createdAt,value
2023-10-29T00:09:38.521Z,82.39
2023-10-29T00:13:54.945Z,82.63
2023-10-29T00:24:12.272Z,82.13
2023-10-29T00:28:27.604Z,82.66
2023-10-29T00:32:32.021Z,83.10
2023-10-29T00:36:36.192Z,83.05
2023-10-29T00:40:40.338Z,83.08
2023-10-29T00:44:43.347Z,83.07
2023-10-29T00:48:47.999Z,83.12
2023-10-29T00:52:51.351Z,83.50
2023-10-29T00:56:55.773Z,83.52
2023-10-29T01:00:58.850Z,84.34
2023-10-29T01:05:06.347Z,84.86
2023-10-29T01:09:09.841Z,84.73
2023-10-29T01:13:12.854Z,84.64
2023-10-29T01:17:15.846Z,84.52
2023-10-29T01:21:20.250Z,84.92
2023-10-29T01:25:23.776Z,85.08
2023-10-29T01:29:27.695Z,85.12
2023-10-29T01:33:30.714Z,85.55
2023-10-29T01:37:35.076Z,85.93
2023-10-29T01:41:38.169Z,85.87
2023-10-29T01:45:41.236Z,86.31
2023-10-29T01:49:44.318Z,86.55
2023-10-29T01:53:48.692Z,86.40
2023-10-29T01:57:51.815Z,86.78
2023-10-29T02:01:54.825Z,87.06
2023-10-29T02:05:58.085Z,87.20
2023-10-29T02:10:02.467Z,87.01
2023-10-29T02:14:05.511Z,87.00
2023-10-29T02:18:08.683Z,87.09
2023-10-29T02:22:13.180Z,88.03
2023-10-29T02:26:16.352Z,88.65
2023-10-29T02:30:19.441Z,88.33
2023-10-29T02:34:22.451Z,88.54
2023-10-29T02:38:26.866Z,89.22
2023-10-29T02:42:29.874Z,89.75
2023-10-29T02:46:32.975Z,90.17
2023-10-29T02:50:38.683Z,90.02
2023-10-29T02:54:43.147Z,89.83
2023-10-29T02:58:46.127Z,90.35
2023-10-29T03:02:49.238Z,90.45
2023-10-29T03:06:52.254Z,90.29
2023-10-29T03:10:57.425Z,91.14
2023-10-29T03:15:01.783Z,90.78
2023-10-29T03:19:04.894Z,90.89
2023-10-29T03:23:08.178Z,91.18
2023-10-29T03:27:12.598Z,91.04
2023-10-29T03:31:16.466Z,90.31
2023-10-29T03:35:19.881Z,89.91
2023-10-29T03:39:22.909Z,89.60
2023-10-29T03:43:27.329Z,89.51
2023-10-29T03:47:30.444Z,89.95
2023-10-29T03:51:34.554Z,89.56
2023-10-29T03:55:38.011Z,89.40
2023-10-29T03:59:43.574Z,88.93
2023-10-29T04:03:46.633Z,88.52
2023-10-29T04:07:49.793Z,88.24
2023-10-29T04:11:54.483Z,87.47
2023-10-29T04:16:01.045Z,87.44
2023-10-29T04:20:06.974Z,87.35
2023-10-29T04:24:10.276Z,87.20
2023-10-29T04:28:13.411Z,87.30
2023-10-29T04:32:18.014Z,87.28
2023-10-29T04:36:21.732Z,86.61
2023-10-29T04:40:24.925Z,85.76
2023-10-29T04:44:28.882Z,85.64
2023-10-29T04:48:33.462Z,86.06
2023-10-29T04:52:36.590Z,89.02
2023-10-29T04:56:39.793Z,89.85
2023-10-29T05:00:42.839Z,91.06
2023-10-29T05:04:47.490Z,92.20
2023-10-29T05:08:51.253Z,92.55
2023-10-29T05:12:54.377Z,92.85
2023-10-29T05:16:57.380Z,91.81
2023-10-29T05:21:03.036Z,90.27
2023-10-29T05:25:09.408Z,88.10
2023-10-29T05:29:12.380Z,83.19
2023-10-29T05:33:15.547Z,81.84
2023-10-29T05:37:20.042Z,80.91
2023-10-29T05:41:23.264Z,80.17
2023-10-29T05:45:26.221Z,79.86
2023-10-29T05:49:29.280Z,81.53
2023-10-29T05:53:33.690Z,85.26
2023-10-29T05:57:36.775Z,87.45
2023-10-29T06:01:39.850Z,88.33
2023-10-29T06:05:43.728Z,87.50
2023-10-29T06:09:52.016Z,84.66
2023-10-29T06:13:58.837Z,83.01
2023-10-29T06:18:06.404Z,82.84
2023-10-29T06:22:16.060Z,84.18
2023-10-29T06:26:28.520Z,84.71
2023-10-29T06:30:38.102Z,85.38
2023-10-29T06:34:49.356Z,85.06
2023-10-29T06:38:56.923Z,84.86
2023-10-29T06:43:05.309Z,84.87
2023-10-29T06:47:11.190Z,84.29
2023-10-29T06:51:20.620Z,85.59
2023-10-29T06:55:28.795Z,87.17
2023-10-29T06:59:38.061Z,88.95
2023-10-29T07:03:51.728Z,88.42
2023-10-29T07:08:05.161Z,87.04
2023-10-29T07:12:13.283Z,85.93
2023-10-29T07:16:25.796Z,84.38
2023-10-29T07:20:32.413Z,83.09
2023-10-29T07:24:39.675Z,82.28
2023-10-29T07:28:44.905Z,81.53
2023-10-29T07:32:52.598Z,80.53
2023-10-29T07:36:57.454Z,78.69
2023-10-29T07:41:03.199Z,78.17
2023-10-29T07:45:09.320Z,77.86
2023-10-29T07:49:15.071Z,78.21
2023-10-29T07:53:19.571Z,78.44
2023-10-29T07:57:24.798Z,78.90
2023-10-29T08:01:35.989Z,79.75
2023-10-29T08:06:00.282Z,81.02
2023-10-29T08:16:32.711Z,84.31
2023-10-29T08:20:43.935Z,86.09
2023-10-29T08:24:52.805Z,86.61
2023-10-29T08:28:59.589Z,87.60
2023-10-29T08:33:07.547Z,87.42
2023-10-29T08:58:24.200Z,88.98
2023-10-29T09:02:28.565Z,88.51
2023-10-29T09:06:37.624Z,88.34
2023-10-29T09:10:49.539Z,88.03
2023-10-29T09:15:34.299Z,87.90
2023-10-29T09:25:48.563Z,87.89
2023-10-29T09:29:55.902Z,87.45
2023-10-29T09:34:02.410Z,87.38
2023-10-29T09:38:12.970Z,87.56
2023-10-29T09:52:47.116Z,89.45
2023-10-29T09:57:17.768Z,88.62
2023-10-29T10:01:26.120Z,87.41
2023-10-29T10:05:32.744Z,86.72
2023-10-29T10:09:56.777Z,86.39
2023-10-29T10:14:06.722Z,85.21
2023-10-29T10:18:12.022Z,84.95
2023-10-29T10:22:36.549Z,84.51
2023-10-29T10:26:42.743Z,83.81
2023-10-29T10:30:53.983Z,83.05
2023-10-29T10:35:01.588Z,82.54
2023-10-29T10:39:06.792Z,82.31
2023-10-29T10:43:11.135Z,81.57
2023-10-29T10:47:20.760Z,80.19
2023-10-29T10:51:27.932Z,80.46
2023-10-29T10:55:51.210Z,79.96
2023-10-29T11:00:07.026Z,80.21
2023-10-29T11:04:12.517Z,80.27
2023-10-29T11:08:18.662Z,79.76
2023-10-29T11:12:23.139Z,79.28
2023-10-29T11:16:28.517Z,79.55
2023-10-29T11:21:16.557Z,80.56
2023-10-29T11:25:34.755Z,80.63
2023-10-29T11:29:50.779Z,82.02
2023-10-29T11:34:34.512Z,81.50
2023-10-29T11:39:07.110Z,81.33
2023-10-29T11:43:24.198Z,82.70
2023-10-29T11:47:27.599Z,82.78
2023-10-29T11:51:32.432Z,81.98
2023-10-29T11:55:48.640Z,81.29
2023-10-29T12:00:13.439Z,80.98
2023-10-29T12:04:46.516Z,80.29
2023-10-29T12:08:54.204Z,79.69
2023-10-29T12:13:01.119Z,79.25
2023-10-29T12:17:05.400Z,78.18
2023-10-29T12:21:14.685Z,77.58
2023-10-29T12:25:20.116Z,76.88
2023-10-29T12:29:26.852Z,75.99
2023-10-29T12:33:35.039Z,74.95
2023-10-29T12:37:40.586Z,75.01
2023-10-29T12:41:53.340Z,74.79
2023-10-29T12:46:57.029Z,75.41
2023-10-29T12:51:08.707Z,75.39
2023-10-29T12:55:15.365Z,75.38
2023-10-29T12:59:23.213Z,75.78
2023-10-29T13:03:27.208Z,76.03
2023-10-29T13:07:32.079Z,76.18
2023-10-29T13:11:35.181Z,76.77
2023-10-29T13:15:39.125Z,76.83
2023-10-29T13:19:43.360Z,76.76
2023-10-29T13:23:47.913Z,77.44
2023-10-29T13:27:50.991Z,77.37
2023-10-29T13:31:54.066Z,77.15
2023-10-29T13:35:57.160Z,77.15
2023-10-29T13:40:01.571Z,76.57
2023-10-29T13:44:04.694Z,76.53
2023-10-29T13:48:08.439Z,76.60
2023-10-29T13:52:11.513Z,76.13
2023-10-29T13:56:16.221Z,75.50
2023-10-29T14:00:20.442Z,75.78
2023-10-29T14:04:44.332Z,75.50
2023-10-29T14:09:09.795Z,75.78
2023-10-29T14:13:14.302Z,76.14
2023-10-29T14:17:18.203Z,76.17
2023-10-29T14:21:22.064Z,75.74
2023-10-29T14:25:25.287Z,75.84
2023-10-29T14:29:30.378Z,75.52
2023-10-29T14:33:33.535Z,75.80
2023-10-29T14:37:36.614Z,74.98
2023-10-29T14:41:39.697Z,75.31
2023-10-29T14:45:47.145Z,75.13
2023-10-29T14:49:50.245Z,75.07
2023-10-29T14:53:53.375Z,75.29
2023-10-29T14:57:56.485Z,75.03
2023-10-29T15:02:00.876Z,74.39
2023-10-29T15:06:10.850Z,73.95
2023-10-29T15:10:14.197Z,74.40
2023-10-29T15:14:17.378Z,74.55
2023-10-29T15:18:21.829Z,74.92
2023-10-29T15:22:25.532Z,75.36
2023-10-29T15:26:28.637Z,76.19
2023-10-29T15:30:32.090Z,76.98
2023-10-29T15:34:36.657Z,78.23
2023-10-29T15:38:40.664Z,80.75
2023-10-29T15:42:43.733Z,82.20
2023-10-29T15:46:46.809Z,82.62
2023-10-29T15:50:51.853Z,84.00
2023-10-29T15:54:54.965Z,85.33
2023-10-29T15:58:58.192Z,87.50
2023-10-29T16:03:02.776Z,87.48
2023-10-29T16:07:07.640Z,88.68
2023-10-29T16:11:11.623Z,89.55
2023-10-29T16:15:14.808Z,90.30
2023-10-29T16:19:17.932Z,90.92
2023-10-29T16:23:22.314Z,91.92
2023-10-29T16:27:26.633Z,92.29
2023-10-29T16:31:29.862Z,92.49
2023-10-29T16:35:33.913Z,93.14
2023-10-29T16:39:38.397Z,93.24
2023-10-29T16:43:41.436Z,94.81
2023-10-29T16:47:48.953Z,95.04
2023-10-29T16:51:59.052Z,95.21
2023-10-29T16:56:08.101Z,95.69
2023-10-29T17:00:13.127Z,95.71
2023-10-29T17:04:16.222Z,95.39
2023-10-29T17:08:19.234Z,93.84
2023-10-29T17:12:23.899Z,92.89
2023-10-29T17:16:27.306Z,90.53
2023-10-29T17:20:30.429Z,90.49
2023-10-29T17:24:33.418Z,90.30
2023-10-29T17:28:37.845Z,89.47
2023-10-29T17:32:41.447Z,90.12
2023-10-29T17:36:46.015Z,91.06
2023-10-29T17:40:49.118Z,91.59
2023-10-29T17:44:53.631Z,91.50
2023-10-29T17:48:56.671Z,92.05
2023-10-29T17:53:01.179Z,93.36
2023-10-29T17:57:04.678Z,94.50
2023-10-29T18:01:10.135Z,95.71
2023-10-29T18:05:13.959Z,96.28
2023-10-29T18:09:19.014Z,96.71
2023-10-29T18:13:22.153Z,96.87
2023-10-29T18:17:26.634Z,98.16
2023-10-29T18:21:31.521Z,99.01
2023-10-29T18:25:34.982Z,100.00
2023-10-29T18:29:37.923Z,99.50
2023-10-29T18:33:42.335Z,99.55
2023-10-29T18:37:50.653Z,99.32
2023-10-29T18:41:53.681Z,99.85
2023-10-29T18:45:56.756Z,100.00
2023-10-29T18:50:04.030Z,100.00
2023-10-29T18:54:08.655Z,100.00
2023-10-29T18:58:11.858Z,100.00
2023-10-29T19:02:15.094Z,100.00
2023-10-29T19:06:19.615Z,100.00
2023-10-29T19:10:22.626Z,100.00
2023-10-29T19:14:27.857Z,100.00
2023-10-29T19:18:30.876Z,100.00
2023-10-29T19:22:35.490Z,100.00
2023-10-29T19:26:38.559Z,100.00
2023-10-29T19:30:55.150Z,100.00
2023-10-29T19:35:08.274Z,100.00
2023-10-29T19:39:13.846Z,100.00
2023-10-29T19:43:16.874Z,100.00
2023-10-29T19:47:19.850Z,100.00
2023-10-29T19:51:22.923Z,100.00
2023-10-29T19:55:27.332Z,100.00
2023-10-29T19:59:30.352Z,100.00
2023-10-29T20:03:34.619Z,100.00
2023-10-29T20:07:38.026Z,100.00
2023-10-29T20:11:42.431Z,100.00
2023-10-29T20:15:45.433Z,100.00
2023-10-29T20:19:48.744Z,100.00
2023-10-29T20:23:52.604Z,100.00
2023-10-29T20:27:57.476Z,100.00
2023-10-29T20:32:02.072Z,100.00
2023-10-29T20:36:06.255Z,100.00
2023-10-29T20:40:10.089Z,100.00
2023-10-29T20:44:14.878Z,100.00
2023-10-29T20:48:17.860Z,100.00
2023-10-29T20:52:20.878Z,100.00
2023-10-29T20:56:23.894Z,100.00
2023-10-29T21:00:30.975Z,100.00
2023-10-29T21:04:35.625Z,100.00
2023-10-29T21:08:38.725Z,100.00
2023-10-29T21:12:41.709Z,100.00
2023-10-29T21:16:46.136Z,100.00
2023-10-29T21:20:49.196Z,100.00
2023-10-29T21:24:52.266Z,100.00
2023-10-29T21:28:55.441Z,100.00
2023-10-29T21:32:59.966Z,100.00
2023-10-29T21:37:03.745Z,100.00
2023-10-29T21:41:08.242Z,100.00
2023-10-29T21:45:12.427Z,100.00
2023-10-29T21:49:16.896Z,100.00
2023-10-29T21:53:19.864Z,100.00
2023-10-29T21:57:22.917Z,100.00
2023-10-29T22:01:26.091Z,100.00
2023-10-29T22:05:30.603Z,100.00
2023-10-29T22:09:34.679Z,100.00
2023-10-29T22:13:39.433Z,100.00
2023-10-29T22:17:42.505Z,100.00
2023-10-29T22:21:46.859Z,100.00
2023-10-29T22:25:49.840Z,100.00
2023-10-29T22:29:53.603Z,100.00
2023-10-29T22:33:56.607Z,100.00
2023-10-29T22:38:01.020Z,100.00
2023-10-29T22:42:04.857Z,100.00
2023-10-29T22:46:07.994Z,100.00
2023-10-29T22:50:11.098Z,100.00
2023-10-29T22:54:15.445Z,100.00
2023-10-29T22:58:18.471Z,100.00
2023-10-29T23:02:21.496Z,100.00
2023-10-29T23:06:24.532Z,100.00
2023-10-29T23:10:31.476Z,100.00
2023-10-29T23:14:34.699Z,100.00
2023-10-29T23:18:38.999Z,100.00
2023-10-29T23:22:42.082Z,100.00
2023-10-29T23:26:46.532Z,100.00
2023-10-29T23:30:49.583Z,100.00
2023-10-29T23:34:52.965Z,100.00
2023-10-29T23:38:55.898Z,100.00
2023-10-29T23:43:00.421Z,100.00
2023-10-29T23:47:03.486Z,100.00
2023-10-29T23:51:06.698Z,100.00
2023-10-29T23:55:10.598Z,100.00
2023-10-29T23:59:15.013Z,100.00
